CheckWX is a tool to help pilots better visualize weather data.  It is not intended as a substitute for an official pre-flight weather briefing.

04:37:04 UTC

SAME METAR
El Plumerillo Airport
Mendoza, Argentina
Current

37 mins ago

SAME 180400Z 11008KT 9999 SCT045 BKN100 20/08 Q1018
Observed
Feb-18 @ 04:00 UTC
Wind
  • 110° at 8 KTS
Visibility
10,000+ meters
Flight Rules
VFR
Cloud Levels
  • Scattered at 4,500' AGL
  • Broken at 10,000' AGL
Temperature
20°C / 68°F
Dewpoint
C / 46°F
Humidity
46%
Altimeter
30.06" Hg
Pressure
1017.92 hPa
Previous

37 mins ago

SAME 180400Z 11008KT 9999 SCT045 BKN10020/08 Q1018
Observed
Feb-18 @ 04:00 UTC
Wind
  • 110° at 8 KTS
Visibility
10,000+ meters
Flight Rules
VFR
Cloud Levels
  • Scattered at 4,500' AGL
Temperature
20°C / 68°F
Dewpoint
C / 46°F
Humidity
46%
Altimeter
30.06" Hg
Pressure
1017.92 hPa
Previous

2 hours ago

SAME 180300Z 14009KT 9999 FEW045 BKN100 20/08 Q1017
Observed
Feb-18 @ 03:00 UTC
Wind
  • 140° at 9 KTS
Visibility
10,000+ meters
Flight Rules
VFR
Cloud Levels
  • Few at 4,500' AGL
  • Broken at 10,000' AGL
Temperature
20°C / 68°F
Dewpoint
C / 46°F
Humidity
46%
Altimeter
30.03" Hg
Pressure
1016.92 hPa